sensor_id;sensor_type;location;lat;lon;timestamp;temperature;humidity
19878;DHT22;10101;52.204;9.910;2023-02-01T00:00:29;4.60;99.90
19878;DHT22;10101;52.204;9.910;2023-02-01T00:02:55;4.60;99.90
19878;DHT22;10101;52.204;9.910;2023-02-01T00:05:22;4.60;99.90
19878;DHT22;10101;52.204;9.910;2023-02-01T00:07:50;4.50;99.90
19878;DHT22;10101;52.204;9.910;2023-02-01T00:10:17;4.60;99.90
19878;DHT22;10101;52.204;9.910;2023-02-01T00:12:44;4.50;99.90
19878;DHT22;10101;52.204;9.910;2023-02-01T00:15:11;4.50;99.90
19878;DHT22;10101;52.204;9.910;2023-02-01T00:17:38;4.50;99.90
19878;DHT22;10101;52.204;9.910;2023-02-01T00:20:05;4.60;99.90
19878;DHT22;10101;52.204;9.910;2023-02-01T00:22:32;4.60;99.90
19878;DHT22;10101;52.204;9.910;2023-02-01T00:25:00;4.50;99.90
19878;DHT22;10101;52.204;9.910;2023-02-01T00:27:27;4.50;99.90
19878;DHT22;10101;52.204;9.910;2023-02-01T00:29:54;4.50;99.90
19878;DHT22;10101;52.204;9.910;2023-02-01T00:32:21;4.40;99.90
19878;DHT22;10101;52.204;9.910;2023-02-01T00:34:48;4.40;99.90
19878;DHT22;10101;52.204;9.910;2023-02-01T00:37:14;4.50;99.90
19878;DHT22;10101;52.204;9.910;2023-02-01T00:39:41;4.40;99.90
19878;DHT22;10101;52.204;9.910;2023-02-01T00:42:09;4.40;99.90
19878;DHT22;10101;52.204;9.910;2023-02-01T00:44:36;4.40;99.90
19878;DHT22;10101;52.204;9.910;2023-02-01T00:47:03;4.40;99.90
19878;DHT22;10101;52.204;9.910;2023-02-01T00:49:29;4.40;99.90
19878;DHT22;10101;52.204;9.910;2023-02-01T00:51:56;4.30;99.90
19878;DHT22;10101;52.204;9.910;2023-02-01T00:54:23;4.40;99.90
19878;DHT22;10101;52.204;9.910;2023-02-01T00:56:49;4.30;99.90
19878;DHT22;10101;52.204;9.910;2023-02-01T00:59:17;4.40;99.90
19878;DHT22;10101;52.204;9.910;2023-02-01T01:01:44;4.30;99.90
19878;DHT22;10101;52.204;9.910;2023-02-01T01:04:11;4.30;99.90
19878;DHT22;10101;52.204;9.910;2023-02-01T01:06:38;4.40;99.90
19878;DHT22;10101;52.204;9.910;2023-02-01T01:09:07;4.20;99.90
19878;DHT22;10101;52.204;9.910;2023-02-01T01:11:35;4.20;99.90
19878;DHT22;10101;52.204;9.910;2023-02-01T01:14:03;4.20;99.90
19878;DHT22;10101;52.204;9.910;2023-02-01T01:16:32;4.20;99.90
19878;DHT22;10101;52.204;9.910;2023-02-01T01:18:59;4.30;99.90
19878;DHT22;10101;52.204;9.910;2023-02-01T01:21:27;4.30;99.90
19878;DHT22;10101;52.204;9.910;2023-02-01T01:23:54;4.20;99.90
19878;DHT22;10101;52.204;9.910;2023-02-01T01:26:23;4.20;99.90
19878;DHT22;10101;52.204;9.910;2023-02-01T01:28:50;4.20;99.90
19878;DHT22;10101;52.204;9.910;2023-02-01T01:31:19;4.20;99.90
19878;DHT22;10101;52.204;9.910;2023-02-01T01:33:49;4.30;99.90
19878;DHT22;10101;52.204;9.910;2023-02-01T01:36:16;4.30;99.90
19878;DHT22;10101;52.204;9.910;2023-02-01T01:38:43;4.20;99.90
19878;DHT22;10101;52.204;9.910;2023-02-01T01:41:14;4.10;99.90
19878;DHT22;10101;52.204;9.910;2023-02-01T01:43:51;4.20;99.90
19878;DHT22;10101;52.204;9.910;2023-02-01T01:46:19;4.20;99.90
19878;DHT22;10101;52.204;9.910;2023-02-01T01:48:49;4.10;99.90
19878;DHT22;10101;52.204;9.910;2023-02-01T01:51:20;4.20;99.90
19878;DHT22;10101;52.204;9.910;2023-02-01T01:53:52;4.10;99.90
19878;DHT22;10101;52.204;9.910;2023-02-01T01:56:22;4.10;99.90
19878;DHT22;10101;52.204;9.910;2023-02-01T01:58:49;4.20;99.90
19878;DHT22;10101;52.204;9.910;2023-02-01T02:01:16;4.20;99.90
19878;DHT22;10101;52.204;9.910;2023-02-01T02:03:44;4.20;99.90
19878;DHT22;10101;52.204;9.910;2023-02-01T02:06:17;4.20;99.90
19878;DHT22;10101;52.204;9.910;2023-02-01T02:08:46;4.20;99.90
19878;DHT22;10101;52.204;9.910;2023-02-01T02:11:16;4.30;99.90
19878;DHT22;10101;52.204;9.910;2023-02-01T02:13:47;4.30;99.90
19878;DHT22;10101;52.204;9.910;2023-02-01T02:16:36;4.20;99.90
19878;DHT22;10101;52.204;9.910;2023-02-01T02:22:26;4.20;99.90
19878;DHT22;10101;52.204;9.910;2023-02-01T02:28:18;4.20;99.90
19878;DHT22;10101;52.204;9.910;2023-02-01T02:31:01;4.30;99.90
19878;DHT22;10101;52.204;9.910;2023-02-01T02:34:07;4.40;99.90
19878;DHT22;10101;52.204;9.910;2023-02-01T02:36:43;4.40;99.90
19878;DHT22;10101;52.204;9.910;2023-02-01T02:39:20;4.50;99.90
19878;DHT22;10101;52.204;9.910;2023-02-01T02:41:52;4.40;99.90
19878;DHT22;10101;52.204;9.910;2023-02-01T02:44:45;4.40;99.90
19878;DHT22;10101;52.204;9.910;2023-02-01T02:47:33;4.50;99.90
19878;DHT22;10101;52.204;9.910;2023-02-01T02:50:10;4.60;99.90
19878;DHT22;10101;52.204;9.910;2023-02-01T02:53:00;4.60;99.90
19878;DHT22;10101;52.204;9.910;2023-02-01T02:55:46;4.60;99.90
19878;DHT22;10101;52.204;9.910;2023-02-01T02:58:13;4.60;99.90
19878;DHT22;10101;52.204;9.910;2023-02-01T03:00:59;4.70;99.90
19878;DHT22;10101;52.204;9.910;2023-02-01T03:03:43;4.70;99.90
19878;DHT22;10101;52.204;9.910;2023-02-01T03:06:36;4.70;99.90
19878;DHT22;10101;52.204;9.910;2023-02-01T03:09:07;4.60;99.90
19878;DHT22;10101;52.204;9.910;2023-02-01T03:11:35;4.60;99.90
19878;DHT22;10101;52.204;9.910;2023-02-01T03:14:17;4.70;99.90
19878;DHT22;10101;52.204;9.910;2023-02-01T03:16:48;4.70;99.90
19878;DHT22;10101;52.204;9.910;2023-02-01T03:19:21;4.70;99.90
19878;DHT22;10101;52.204;9.910;2023-02-01T03:21:51;4.70;99.90
19878;DHT22;10101;52.204;9.910;2023-02-01T03:24:23;4.70;99.90
19878;DHT22;10101;52.204;9.910;2023-02-01T03:27:02;4.80;99.90
19878;DHT22;10101;52.204;9.910;2023-02-01T03:29:34;4.60;99.90
19878;DHT22;10101;52.204;9.910;2023-02-01T03:32:03;4.70;99.90
19878;DHT22;10101;52.204;9.910;2023-02-01T03:34:30;4.70;99.90
19878;DHT22;10101;52.204;9.910;2023-02-01T03:37:01;4.80;99.90
19878;DHT22;10101;52.204;9.910;2023-02-01T03:39:32;4.80;99.90
19878;DHT22;10101;52.204;9.910;2023-02-01T03:42:04;4.80;99.90
19878;DHT22;10101;52.204;9.910;2023-02-01T03:44:36;4.80;99.90
19878;DHT22;10101;52.204;9.910;2023-02-01T03:47:08;4.80;99.90
19878;DHT22;10101;52.204;9.910;2023-02-01T03:49:39;4.70;99.90
19878;DHT22;10101;52.204;9.910;2023-02-01T03:52:11;4.60;99.90
19878;DHT22;10101;52.204;9.910;2023-02-01T03:54:40;4.60;99.90
19878;DHT22;10101;52.204;9.910;2023-02-01T03:57:09;4.50;99.90
19878;DHT22;10101;52.204;9.910;2023-02-01T03:59:39;4.40;99.90
19878;DHT22;10101;52.204;9.910;2023-02-01T04:02:06;4.40;99.90
19878;DHT22;10101;52.204;9.910;2023-02-01T04:04:34;4.60;99.90
19878;DHT22;10101;52.204;9.910;2023-02-01T04:07:01;4.40;99.90
19878;DHT22;10101;52.204;9.910;2023-02-01T04:09:29;4.40;99.90
19878;DHT22;10101;52.204;9.910;2023-02-01T04:11:56;4.30;99.90
19878;DHT22;10101;52.204;9.910;2023-02-01T04:14:23;4.40;99.90
19878;DHT22;10101;52.204;9.910;2023-02-01T04:16:50;4.30;99.90
19878;DHT22;10101;52.204;9.910;2023-02-01T04:19:17;4.30;99.90
19878;DHT22;10101;52.204;9.910;2023-02-01T04:21:44;4.40;99.90
19878;DHT22;10101;52.204;9.910;2023-02-01T04:24:11;4.40;99.90
19878;DHT22;10101;52.204;9.910;2023-02-01T04:26:39;4.50;99.90
19878;DHT22;10101;52.204;9.910;2023-02-01T04:29:05;4.50;99.90
19878;DHT22;10101;52.204;9.910;2023-02-01T04:31:32;4.50;99.90
19878;DHT22;10101;52.204;9.910;2023-02-01T04:34:01;4.50;99.90
19878;DHT22;10101;52.204;9.910;2023-02-01T04:36:27;4.50;99.90
19878;DHT22;10101;52.204;9.910;2023-02-01T04:38:54;4.60;99.90
19878;DHT22;10101;52.204;9.910;2023-02-01T04:41:21;4.60;99.90
19878;DHT22;10101;52.204;9.910;2023-02-01T04:43:50;4.60;99.90
19878;DHT22;10101;52.204;9.910;2023-02-01T04:46:18;4.70;99.90
19878;DHT22;10101;52.204;9.910;2023-02-01T04:48:45;4.70;99.90
19878;DHT22;10101;52.204;9.910;2023-02-01T04:51:12;4.80;99.90
19878;DHT22;10101;52.204;9.910;2023-02-01T04:53:40;4.70;99.90
19878;DHT22;10101;52.204;9.910;2023-02-01T04:56:07;4.70;99.90
19878;DHT22;10101;52.204;9.910;2023-02-01T04:58:34;4.70;99.90
19878;DHT22;10101;52.204;9.910;2023-02-01T05:01:03;4.70;99.90
19878;DHT22;10101;52.204;9.910;2023-02-01T05:03:30;4.80;99.90
19878;DHT22;10101;52.204;9.910;2023-02-01T05:05:57;4.80;99.90
19878;DHT22;10101;52.204;9.910;2023-02-01T05:08:24;4.80;99.90
19878;DHT22;10101;52.204;9.910;2023-02-01T05:10:52;4.70;99.90
19878;DHT22;10101;52.204;9.910;2023-02-01T05:13:19;4.60;99.90
19878;DHT22;10101;52.204;9.910;2023-02-01T05:16:05;4.50;99.90
19878;DHT22;10101;52.204;9.910;2023-02-01T05:18:32;4.50;99.90
19878;DHT22;10101;52.204;9.910;2023-02-01T05:20:59;4.50;99.90
19878;DHT22;10101;52.204;9.910;2023-02-01T05:23:26;4.40;99.90
19878;DHT22;10101;52.204;9.910;2023-02-01T05:25:58;4.60;99.90
19878;DHT22;10101;52.204;9.910;2023-02-01T05:28:25;4.50;99.90
19878;DHT22;10101;52.204;9.910;2023-02-01T05:30:52;4.50;99.90
19878;DHT22;10101;52.204;9.910;2023-02-01T05:33:20;4.50;99.90
19878;DHT22;10101;52.204;9.910;2023-02-01T05:35:47;4.50;99.90
19878;DHT22;10101;52.204;9.910;2023-02-01T05:38:13;4.50;99.90
19878;DHT22;10101;52.204;9.910;2023-02-01T05:40:40;4.50;99.90
19878;DHT22;10101;52.204;9.910;2023-02-01T05:43:07;4.50;99.90
19878;DHT22;10101;52.204;9.910;2023-02-01T05:45:33;4.60;99.90
19878;DHT22;10101;52.204;9.910;2023-02-01T05:48:00;4.60;99.90
19878;DHT22;10101;52.204;9.910;2023-02-01T05:50:28;4.50;99.90
19878;DHT22;10101;52.204;9.910;2023-02-01T05:52:55;4.50;99.90
19878;DHT22;10101;52.204;9.910;2023-02-01T05:55:22;4.60;99.90
19878;DHT22;10101;52.204;9.910;2023-02-01T05:57:48;4.70;99.90
19878;DHT22;10101;52.204;9.910;2023-02-01T06:00:16;4.60;99.90
19878;DHT22;10101;52.204;9.910;2023-02-01T06:02:43;4.70;99.90
19878;DHT22;10101;52.204;9.910;2023-02-01T06:05:09;4.80;99.90
19878;DHT22;10101;52.204;9.910;2023-02-01T06:07:37;4.90;99.90
19878;DHT22;10101;52.204;9.910;2023-02-01T06:10:05;4.90;99.90
19878;DHT22;10101;52.204;9.910;2023-02-01T06:12:32;4.80;99.90
19878;DHT22;10101;52.204;9.910;2023-02-01T06:14:58;4.80;99.90
19878;DHT22;10101;52.204;9.910;2023-02-01T06:17:25;4.80;99.90
19878;DHT22;10101;52.204;9.910;2023-02-01T06:19:52;4.70;99.90
19878;DHT22;10101;52.204;9.910;2023-02-01T06:22:18;4.80;99.90
19878;DHT22;10101;52.204;9.910;2023-02-01T06:24:48;4.70;99.90
19878;DHT22;10101;52.204;9.910;2023-02-01T06:27:15;4.30;99.90
19878;DHT22;10101;52.204;9.910;2023-02-01T06:29:41;4.60;99.90
19878;DHT22;10101;52.204;9.910;2023-02-01T06:32:08;4.50;99.90
19878;DHT22;10101;52.204;9.910;2023-02-01T06:34:35;4.60;99.90
19878;DHT22;10101;52.204;9.910;2023-02-01T06:37:04;4.60;99.90
19878;DHT22;10101;52.204;9.910;2023-02-01T06:39:31;4.60;99.90
19878;DHT22;10101;52.204;9.910;2023-02-01T06:41:59;4.60;99.90
19878;DHT22;10101;52.204;9.910;2023-02-01T06:44:26;4.70;99.90
19878;DHT22;10101;52.204;9.910;2023-02-01T06:46:52;4.60;99.90
19878;DHT22;10101;52.204;9.910;2023-02-01T06:49:20;4.50;99.90
19878;DHT22;10101;52.204;9.910;2023-02-01T06:51:47;4.30;99.90
19878;DHT22;10101;52.204;9.910;2023-02-01T06:54:13;4.20;99.90
19878;DHT22;10101;52.204;9.910;2023-02-01T06:56:40;4.20;99.90
19878;DHT22;10101;52.204;9.910;2023-02-01T06:59:09;4.20;99.90
19878;DHT22;10101;52.204;9.910;2023-02-01T07:01:36;4.30;99.90
19878;DHT22;10101;52.204;9.910;2023-02-01T07:04:03;4.30;99.90
19878;DHT22;10101;52.204;9.910;2023-02-01T07:06:29;4.30;99.90
19878;DHT22;10101;52.204;9.910;2023-02-01T07:08:57;4.30;99.90
19878;DHT22;10101;52.204;9.910;2023-02-01T07:11:25;4.30;99.90
19878;DHT22;10101;52.204;9.910;2023-02-01T07:13:53;4.40;99.90
19878;DHT22;10101;52.204;9.910;2023-02-01T07:16:21;4.30;99.90
19878;DHT22;10101;52.204;9.910;2023-02-01T07:18:50;4.20;99.90
19878;DHT22;10101;52.204;9.910;2023-02-01T07:21:17;4.30;99.90
19878;DHT22;10101;52.204;9.910;2023-02-01T07:23:43;4.30;99.90
19878;DHT22;10101;52.204;9.910;2023-02-01T07:26:12;4.40;99.90
19878;DHT22;10101;52.204;9.910;2023-02-01T07:28:39;4.30;99.90
19878;DHT22;10101;52.204;9.910;2023-02-01T07:31:08;4.40;99.90
19878;DHT22;10101;52.204;9.910;2023-02-01T07:33:36;4.40;99.90
19878;DHT22;10101;52.204;9.910;2023-02-01T07:36:05;4.50;99.90
19878;DHT22;10101;52.204;9.910;2023-02-01T07:38:32;4.50;99.90
19878;DHT22;10101;52.204;9.910;2023-02-01T07:41:00;4.40;99.90
19878;DHT22;10101;52.204;9.910;2023-02-01T07:43:26;4.40;99.90
19878;DHT22;10101;52.204;9.910;2023-02-01T07:45:54;4.50;99.90
19878;DHT22;10101;52.204;9.910;2023-02-01T07:48:21;4.70;99.90
19878;DHT22;10101;52.204;9.910;2023-02-01T07:50:57;4.80;99.90
19878;DHT22;10101;52.204;9.910;2023-02-01T07:53:24;4.80;99.90
19878;DHT22;10101;52.204;9.910;2023-02-01T07:55:50;4.90;99.90
19878;DHT22;10101;52.204;9.910;2023-02-01T07:58:17;5.00;99.90
19878;DHT22;10101;52.204;9.910;2023-02-01T08:00:44;4.90;99.90
19878;DHT22;10101;52.204;9.910;2023-02-01T08:03:28;5.00;99.90
19878;DHT22;10101;52.204;9.910;2023-02-01T08:05:56;5.10;99.90
19878;DHT22;10101;52.204;9.910;2023-02-01T08:08:23;5.20;99.90
19878;DHT22;10101;52.204;9.910;2023-02-01T08:10:50;5.10;99.90
19878;DHT22;10101;52.204;9.910;2023-02-01T08:13:17;5.10;99.90
19878;DHT22;10101;52.204;9.910;2023-02-01T08:15:44;5.20;99.90
19878;DHT22;10101;52.204;9.910;2023-02-01T08:18:10;5.30;99.90
19878;DHT22;10101;52.204;9.910;2023-02-01T08:20:41;5.20;99.90
19878;DHT22;10101;52.204;9.910;2023-02-01T08:23:12;5.20;99.90
19878;DHT22;10101;52.204;9.910;2023-02-01T08:25:39;5.30;99.90
19878;DHT22;10101;52.204;9.910;2023-02-01T08:28:06;5.30;99.90
19878;DHT22;10101;52.204;9.910;2023-02-01T08:30:33;5.30;99.90
19878;DHT22;10101;52.204;9.910;2023-02-01T08:33:00;5.40;99.90
19878;DHT22;10101;52.204;9.910;2023-02-01T08:35:27;5.40;99.90
19878;DHT22;10101;52.204;9.910;2023-02-01T08:37:54;5.50;99.90
19878;DHT22;10101;52.204;9.910;2023-02-01T08:40:22;5.60;99.90
19878;DHT22;10101;52.204;9.910;2023-02-01T08:42:48;5.50;99.90
19878;DHT22;10101;52.204;9.910;2023-02-01T08:45:19;5.40;99.90
19878;DHT22;10101;52.204;9.910;2023-02-01T08:47:46;5.50;99.90
19878;DHT22;10101;52.204;9.910;2023-02-01T08:50:14;5.60;99.90
19878;DHT22;10101;52.204;9.910;2023-02-01T08:52:41;5.70;99.90
19878;DHT22;10101;52.204;9.910;2023-02-01T08:55:08;5.70;99.90
19878;DHT22;10101;52.204;9.910;2023-02-01T08:57:37;5.70;99.90
19878;DHT22;10101;52.204;9.910;2023-02-01T09:00:05;5.70;99.90
19878;DHT22;10101;52.204;9.910;2023-02-01T09:02:32;5.70;99.90
19878;DHT22;10101;52.204;9.910;2023-02-01T09:04:59;5.70;99.90
19878;DHT22;10101;52.204;9.910;2023-02-01T09:07:26;5.80;99.90
19878;DHT22;10101;52.204;9.910;2023-02-01T09:09:52;5.80;99.90
19878;DHT22;10101;52.204;9.910;2023-02-01T09:12:22;5.80;99.90
19878;DHT22;10101;52.204;9.910;2023-02-01T09:14:50;5.90;99.90
19878;DHT22;10101;52.204;9.910;2023-02-01T09:17:17;6.00;99.90
19878;DHT22;10101;52.204;9.910;2023-02-01T09:19:43;6.10;99.90
19878;DHT22;10101;52.204;9.910;2023-02-01T09:22:10;6.10;99.90
19878;DHT22;10101;52.204;9.910;2023-02-01T09:24:37;6.20;99.90
19878;DHT22;10101;52.204;9.910;2023-02-01T09:27:04;6.20;99.90
19878;DHT22;10101;52.204;9.910;2023-02-01T09:29:30;6.20;99.90
19878;DHT22;10101;52.204;9.910;2023-02-01T09:31:58;6.10;99.90
19878;DHT22;10101;52.204;9.910;2023-02-01T09:34:25;6.10;99.90
19878;DHT22;10101;52.204;9.910;2023-02-01T09:36:52;6.00;99.90
19878;DHT22;10101;52.204;9.910;2023-02-01T09:39:19;6.00;99.90
19878;DHT22;10101;52.204;9.910;2023-02-01T09:41:54;6.00;99.90
19878;DHT22;10101;52.204;9.910;2023-02-01T09:44:48;5.90;99.90
19878;DHT22;10101;52.204;9.910;2023-02-01T09:47:24;5.90;99.90
19878;DHT22;10101;52.204;9.910;2023-02-01T09:49:55;6.00;99.90
19878;DHT22;10101;52.204;9.910;2023-02-01T09:52:29;6.00;99.90
19878;DHT22;10101;52.204;9.910;2023-02-01T09:55:00;6.00;99.90
19878;DHT22;10101;52.204;9.910;2023-02-01T09:57:36;6.10;99.90
19878;DHT22;10101;52.204;9.910;2023-02-01T10:00:16;6.20;99.90
19878;DHT22;10101;52.204;9.910;2023-02-01T10:02:46;6.20;99.90
19878;DHT22;10101;52.204;9.910;2023-02-01T10:05:14;6.20;99.90
19878;DHT22;10101;52.204;9.910;2023-02-01T10:07:47;6.30;99.90
19878;DHT22;10101;52.204;9.910;2023-02-01T10:10:21;6.30;99.90
19878;DHT22;10101;52.204;9.910;2023-02-01T10:16:17;6.30;99.90
19878;DHT22;10101;52.204;9.910;2023-02-01T10:19:00;6.30;99.90
19878;DHT22;10101;52.204;9.910;2023-02-01T10:21:41;6.30;99.90
19878;DHT22;10101;52.204;9.910;2023-02-01T10:24:20;6.40;99.90
19878;DHT22;10101;52.204;9.910;2023-02-01T10:26:56;6.50;99.90
19878;DHT22;10101;52.204;9.910;2023-02-01T10:29:31;6.50;99.90
19878;DHT22;10101;52.204;9.910;2023-02-01T10:32:01;6.60;99.90
19878;DHT22;10101;52.204;9.910;2023-02-01T10:34:31;6.60;99.90
19878;DHT22;10101;52.204;9.910;2023-02-01T10:37:02;6.60;99.90
19878;DHT22;10101;52.204;9.910;2023-02-01T10:39:34;6.60;99.90
19878;DHT22;10101;52.204;9.910;2023-02-01T10:42:02;6.60;99.90
19878;DHT22;10101;52.204;9.910;2023-02-01T10:44:30;6.70;99.90
19878;DHT22;10101;52.204;9.910;2023-02-01T10:46:59;6.70;99.90
19878;DHT22;10101;52.204;9.910;2023-02-01T10:49:33;6.70;99.90
19878;DHT22;10101;52.204;9.910;2023-02-01T10:52:11;6.70;99.90
19878;DHT22;10101;52.204;9.910;2023-02-01T10:54:39;6.70;99.90
19878;DHT22;10101;52.204;9.910;2023-02-01T10:57:08;6.60;99.90
19878;DHT22;10101;52.204;9.910;2023-02-01T10:59:35;6.70;99.90
19878;DHT22;10101;52.204;9.910;2023-02-01T11:02:17;6.70;99.90
19878;DHT22;10101;52.204;9.910;2023-02-01T11:04:47;6.60;99.90
19878;DHT22;10101;52.204;9.910;2023-02-01T11:07:17;6.60;99.90
19878;DHT22;10101;52.204;9.910;2023-02-01T11:09:50;6.60;99.90
19878;DHT22;10101;52.204;9.910;2023-02-01T11:12:27;6.60;99.90
19878;DHT22;10101;52.204;9.910;2023-02-01T11:14:58;6.60;99.90
19878;DHT22;10101;52.204;9.910;2023-02-01T11:17:28;6.60;99.90
19878;DHT22;10101;52.204;9.910;2023-02-01T11:20:02;6.60;99.90
19878;DHT22;10101;52.204;9.910;2023-02-01T11:22:29;6.60;99.90
19878;DHT22;10101;52.204;9.910;2023-02-01T11:24:56;6.50;99.90
19878;DHT22;10101;52.204;9.910;2023-02-01T11:27:24;6.50;99.90
19878;DHT22;10101;52.204;9.910;2023-02-01T11:29:53;6.40;99.90
19878;DHT22;10101;52.204;9.910;2023-02-01T11:32:22;6.40;99.90
19878;DHT22;10101;52.204;9.910;2023-02-01T11:34:54;6.40;99.90
19878;DHT22;10101;52.204;9.910;2023-02-01T11:37:29;6.40;99.90
19878;DHT22;10101;52.204;9.910;2023-02-01T11:39:58;6.40;99.90
19878;DHT22;10101;52.204;9.910;2023-02-01T11:42:25;6.40;99.90
19878;DHT22;10101;52.204;9.910;2023-02-01T11:45:18;6.40;99.90
19878;DHT22;10101;52.204;9.910;2023-02-01T11:47:45;6.40;99.90
19878;DHT22;10101;52.204;9.910;2023-02-01T11:50:16;6.40;99.90
19878;DHT22;10101;52.204;9.910;2023-02-01T11:52:58;6.40;99.90
19878;DHT22;10101;52.204;9.910;2023-02-01T11:55:46;6.40;99.90
19878;DHT22;10101;52.204;9.910;2023-02-01T11:58:39;6.30;99.90
19878;DHT22;10101;52.204;9.910;2023-02-01T12:01:20;6.30;99.90
19878;DHT22;10101;52.204;9.910;2023-02-01T12:06:48;6.30;99.90
19878;DHT22;10101;52.204;9.910;2023-02-01T12:09:28;6.30;99.90
19878;DHT22;10101;52.204;9.910;2023-02-01T12:12:06;6.20;99.90
19878;DHT22;10101;52.204;9.910;2023-02-01T12:14:46;6.20;99.90
19878;DHT22;10101;52.204;9.910;2023-02-01T12:17:35;6.20;99.90
19878;DHT22;10101;52.204;9.910;2023-02-01T12:20:17;6.30;99.90
19878;DHT22;10101;52.204;9.910;2023-02-01T12:22:55;6.30;99.90
19878;DHT22;10101;52.204;9.910;2023-02-01T12:25:34;6.40;99.90
19878;DHT22;10101;52.204;9.910;2023-02-01T12:31:00;6.50;99.90
19878;DHT22;10101;52.204;9.910;2023-02-01T12:33:38;6.60;99.90
19878;DHT22;10101;52.204;9.910;2023-02-01T12:36:15;6.60;99.90
19878;DHT22;10101;52.204;9.910;2023-02-01T12:38:49;6.60;99.90
19878;DHT22;10101;52.204;9.910;2023-02-01T12:41:35;6.60;99.90
19878;DHT22;10101;52.204;9.910;2023-02-01T12:44:10;6.50;99.90
19878;DHT22;10101;52.204;9.910;2023-02-01T12:46:41;6.30;99.90
19878;DHT22;10101;52.204;9.910;2023-02-01T12:49:12;6.10;99.90
19878;DHT22;10101;52.204;9.910;2023-02-01T12:51:44;5.90;99.90
19878;DHT22;10101;52.204;9.910;2023-02-01T12:54:18;5.70;99.90
19878;DHT22;10101;52.204;9.910;2023-02-01T12:56:49;5.50;99.90
19878;DHT22;10101;52.204;9.910;2023-02-01T12:59:24;5.50;99.90
19878;DHT22;10101;52.204;9.910;2023-02-01T13:01:55;5.60;99.90
19878;DHT22;10101;52.204;9.910;2023-02-01T13:04:27;5.70;99.90
19878;DHT22;10101;52.204;9.910;2023-02-01T13:07:03;5.70;99.90
19878;DHT22;10101;52.204;9.910;2023-02-01T13:09:39;5.70;99.90
19878;DHT22;10101;52.204;9.910;2023-02-01T13:12:12;5.70;99.90
19878;DHT22;10101;52.204;9.910;2023-02-01T13:14:44;5.70;99.90
19878;DHT22;10101;52.204;9.910;2023-02-01T13:17:15;5.70;99.90
19878;DHT22;10101;52.204;9.910;2023-02-01T13:19:48;5.70;99.90
19878;DHT22;10101;52.204;9.910;2023-02-01T13:22:20;5.70;99.90
19878;DHT22;10101;52.204;9.910;2023-02-01T13:24:50;5.70;99.90
19878;DHT22;10101;52.204;9.910;2023-02-01T13:27:20;5.60;99.90
19878;DHT22;10101;52.204;9.910;2023-02-01T13:29:53;5.50;99.90
19878;DHT22;10101;52.204;9.910;2023-02-01T13:32:51;5.40;99.90
19878;DHT22;10101;52.204;9.910;2023-02-01T13:35:34;5.30;99.90
19878;DHT22;10101;52.204;9.910;2023-02-01T13:41:24;4.90;99.90
19878;DHT22;10101;52.204;9.910;2023-02-01T13:43:57;4.80;99.90
19878;DHT22;10101;52.204;9.910;2023-02-01T13:46:25;4.90;99.90
19878;DHT22;10101;52.204;9.910;2023-02-01T13:48:55;4.50;99.90
19878;DHT22;10101;52.204;9.910;2023-02-01T13:51:34;4.30;99.90
19878;DHT22;10101;52.204;9.910;2023-02-01T13:54:02;4.30;99.90
19878;DHT22;10101;52.204;9.910;2023-02-01T13:56:40;4.40;99.90
19878;DHT22;10101;52.204;9.910;2023-02-01T13:59:36;4.40;99.90
19878;DHT22;10101;52.204;9.910;2023-02-01T14:05:04;3.00;99.90
19878;DHT22;10101;52.204;9.910;2023-02-01T14:07:33;2.40;99.90
19878;DHT22;10101;52.204;9.910;2023-02-01T14:13:04;1.80;99.90
19878;DHT22;10101;52.204;9.910;2023-02-01T14:15:32;1.50;99.90
19878;DHT22;10101;52.204;9.910;2023-02-01T14:17:59;1.20;99.90
19878;DHT22;10101;52.204;9.910;2023-02-01T14:20:44;1.20;99.90
19878;DHT22;10101;52.204;9.910;2023-02-01T14:23:29;1.20;99.90
19878;DHT22;10101;52.204;9.910;2023-02-01T14:26:03;1.30;99.90
19878;DHT22;10101;52.204;9.910;2023-02-01T14:28:33;1.30;99.90
19878;DHT22;10101;52.204;9.910;2023-02-01T14:31:15;1.20;99.90
19878;DHT22;10101;52.204;9.910;2023-02-01T14:33:43;1.30;99.90
19878;DHT22;10101;52.204;9.910;2023-02-01T14:36:11;1.50;99.90
19878;DHT22;10101;52.204;9.910;2023-02-01T14:38:39;1.60;99.90
19878;DHT22;10101;52.204;9.910;2023-02-01T14:41:29;1.70;99.90
19878;DHT22;10101;52.204;9.910;2023-02-01T14:44:26;1.80;99.90
19878;DHT22;10101;52.204;9.910;2023-02-01T14:47:09;1.80;99.90
19878;DHT22;10101;52.204;9.910;2023-02-01T14:49:47;1.90;99.90
19878;DHT22;10101;52.204;9.910;2023-02-01T14:52:19;2.10;99.90
19878;DHT22;10101;52.204;9.910;2023-02-01T14:54:51;2.20;99.90
19878;DHT22;10101;52.204;9.910;2023-02-01T14:57:20;2.20;99.90
19878;DHT22;10101;52.204;9.910;2023-02-01T14:59:55;2.50;99.90
19878;DHT22;10101;52.204;9.910;2023-02-01T15:02:27;2.70;99.90
19878;DHT22;10101;52.204;9.910;2023-02-01T15:04:57;2.70;99.90
19878;DHT22;10101;52.204;9.910;2023-02-01T15:07:25;2.70;99.90
19878;DHT22;10101;52.204;9.910;2023-02-01T15:09:54;2.80;99.90
19878;DHT22;10101;52.204;9.910;2023-02-01T15:12:24;2.80;99.90
19878;DHT22;10101;52.204;9.910;2023-02-01T15:15:13;2.90;99.90
19878;DHT22;10101;52.204;9.910;2023-02-01T15:17:42;3.00;99.90
19878;DHT22;10101;52.204;9.910;2023-02-01T15:20:17;3.00;99.90
19878;DHT22;10101;52.204;9.910;2023-02-01T15:22:52;3.00;99.90
19878;DHT22;10101;52.204;9.910;2023-02-01T15:25:21;3.10;99.90
19878;DHT22;10101;52.204;9.910;2023-02-01T15:27:48;3.20;99.90
19878;DHT22;10101;52.204;9.910;2023-02-01T15:30:18;3.30;99.90
19878;DHT22;10101;52.204;9.910;2023-02-01T15:32:47;3.30;99.90
19878;DHT22;10101;52.204;9.910;2023-02-01T15:35:38;3.40;99.90
19878;DHT22;10101;52.204;9.910;2023-02-01T15:38:36;3.30;99.90
19878;DHT22;10101;52.204;9.910;2023-02-01T15:41:06;3.30;99.90
19878;DHT22;10101;52.204;9.910;2023-02-01T15:43:35;3.20;99.90
19878;DHT22;10101;52.204;9.910;2023-02-01T15:46:06;3.40;99.90
19878;DHT22;10101;52.204;9.910;2023-02-01T15:48:38;3.40;99.90
19878;DHT22;10101;52.204;9.910;2023-02-01T15:51:10;3.30;99.90
19878;DHT22;10101;52.204;9.910;2023-02-01T15:53:38;3.30;99.90
19878;DHT22;10101;52.204;9.910;2023-02-01T15:56:09;3.30;99.90
19878;DHT22;10101;52.204;9.910;2023-02-01T15:58:36;3.20;99.90
19878;DHT22;10101;52.204;9.910;2023-02-01T16:01:04;3.10;99.90
19878;DHT22;10101;52.204;9.910;2023-02-01T16:03:38;2.90;99.90
19878;DHT22;10101;52.204;9.910;2023-02-01T16:06:08;3.00;99.90
19878;DHT22;10101;52.204;9.910;2023-02-01T16:08:35;3.00;99.90
19878;DHT22;10101;52.204;9.910;2023-02-01T16:11:20;3.00;99.90
19878;DHT22;10101;52.204;9.910;2023-02-01T16:13:49;3.10;99.90
19878;DHT22;10101;52.204;9.910;2023-02-01T16:16:15;3.10;99.90
19878;DHT22;10101;52.204;9.910;2023-02-01T16:18:44;3.30;99.90
19878;DHT22;10101;52.204;9.910;2023-02-01T16:21:11;3.50;99.90
19878;DHT22;10101;52.204;9.910;2023-02-01T16:23:38;3.60;99.90
19878;DHT22;10101;52.204;9.910;2023-02-01T16:26:05;3.90;99.90
19878;DHT22;10101;52.204;9.910;2023-02-01T16:28:32;3.80;99.90
19878;DHT22;10101;52.204;9.910;2023-02-01T16:30:59;3.90;99.90
19878;DHT22;10101;52.204;9.910;2023-02-01T16:33:27;4.00;99.90